Time;durP1;ratioP1;P1;durP2;ratioP2;P2;SDS_P1;SDS_P2;PMS_P1;PMS_P2;Temp;Humidity;BMP_temperature;BMP_pressure;BME280_temperature;BME280_humidity;BME280_pressure;Samples;Min_cycle;Max_cycle;Signal;HPM_P1;HPM_P2
2021/07/22 00:01:38;;;;;;;9.97;7.67;;;19.80;99.90;;;;;;4976374;28;20797;-80
2021/07/22 00:04:06;;;;;;;11.10;8.33;;;19.70;99.90;;;;;;4976446;28;20466;-80
2021/07/22 00:06:34;;;;;;;10.30;8.23;;;19.60;99.90;;;;;;4975693;28;20478;-80
2021/07/22 00:09:04;;;;;;;10.03;7.77;;;19.50;99.90;;;;;;4976212;28;20431;-80
2021/07/22 00:11:32;;;;;;;9.33;7.60;;;19.40;99.90;;;;;;4977657;28;20404;-81
2021/07/22 00:14:00;;;;;;;11.90;9.07;;;19.30;99.90;;;;;;4976223;28;20973;-80
2021/07/22 00:16:28;;;;;;;9.47;7.37;;;19.40;99.90;;;;;;4976321;28;20419;-80
2021/07/22 00:18:57;;;;;;;9.93;8.20;;;19.30;99.90;;;;;;4991630;28;21042;-79
2021/07/22 00:21:25;;;;;;;10.33;7.87;;;19.20;99.90;;;;;;4991349;28;20468;-80
2021/07/22 00:23:53;;;;;;;10.27;8.10;;;19.10;99.90;;;;;;4991446;28;20491;-80
2021/07/22 00:26:22;;;;;;;15.43;8.73;;;19.10;99.90;;;;;;4990671;28;20431;-81
2021/07/22 00:28:50;;;;;;;14.57;7.90;;;19.10;99.90;;;;;;4991443;28;20468;-81
2021/07/22 00:31:18;;;;;;;11.07;7.40;;;19.00;99.90;;;;;;4976427;28;20407;-80
2021/07/22 00:33:46;;;;;;;11.83;8.80;;;19.00;99.90;;;;;;4976151;28;20455;-80
2021/07/22 00:36:16;;;;;;;8.90;7.30;;;19.10;99.90;;;;;;4979316;28;20405;-80
2021/07/22 00:38:44;;;;;;;14.77;9.50;;;19.10;99.90;;;;;;4979573;28;20473;-80
2021/07/22 00:41:13;;;;;;;16.13;7.50;;;19.10;99.90;;;;;;4979984;28;20427;-80
2021/07/22 00:43:42;;;;;;;9.47;7.93;;;19.10;99.90;;;;;;4995475;28;20884;-80
2021/07/22 00:46:10;;;;;;;12.10;8.27;;;19.10;99.90;;;;;;4979861;28;20427;-80
2021/07/22 00:48:39;;;;;;;11.13;7.63;;;19.10;99.90;;;;;;4979861;28;20434;-79
2021/07/22 00:51:08;;;;;;;11.77;8.00;;;19.10;99.90;;;;;;4995118;28;20409;-80
2021/07/22 00:53:37;;;;;;;10.37;6.17;;;19.10;99.90;;;;;;4994594;28;20450;-80
2021/07/22 00:56:06;;;;;;;12.37;8.87;;;19.10;99.90;;;;;;4980532;28;20429;-80
2021/07/22 00:58:35;;;;;;;10.57;6.90;;;19.20;99.90;;;;;;5004299;28;20437;-80
2021/07/22 01:01:04;;;;;;;10.93;8.73;;;19.10;99.90;;;;;;5010177;28;20530;-79
2021/07/22 01:03:32;;;;;;;10.07;6.93;;;19.10;99.90;;;;;;4994865;28;20454;-79
2021/07/22 01:06:01;;;;;;;9.07;6.87;;;19.10;99.90;;;;;;5000482;28;20460;-79
2021/07/22 01:08:29;;;;;;;11.47;8.80;;;19.00;99.90;;;;;;4977934;28;20435;-79
2021/07/22 01:11:20;;;;;;;10.90;6.90;;;19.10;99.90;;;;;;4992441;28;20504;-79
2021/07/22 01:13:48;;;;;;;8.87;7.63;;;19.20;99.90;;;;;;4992559;28;20505;-79
2021/07/22 01:16:19;;;;;;;10.80;8.03;;;19.20;99.90;;;;;;4992545;28;20927;-79
2021/07/22 01:18:47;;;;;;;9.43;7.20;;;19.30;99.90;;;;;;4992262;28;20529;-79
2021/07/22 01:21:17;;;;;;;18.07;8.90;;;19.40;99.90;;;;;;4977958;28;20925;-79
2021/07/22 01:23:46;;;;;;;13.20;7.77;;;19.40;99.90;;;;;;4991817;28;20456;-79
2021/07/22 01:26:35;;;;;;;12.33;9.03;;;19.40;99.90;;;;;;4977663;28;20409;-80
2021/07/22 01:29:22;;;;;;;9.40;7.53;;;19.30;99.90;;;;;;4976997;28;20476;-80
2021/07/22 01:31:50;;;;;;;11.57;7.70;;;19.30;99.90;;;;;;4978010;28;20927;-80
2021/07/22 01:34:18;;;;;;;12.50;8.00;;;19.20;99.90;;;;;;4994133;28;20527;-81
2021/07/22 01:36:49;;;;;;;10.70;7.57;;;19.40;99.90;;;;;;5011843;28;20424;-80
2021/07/22 01:39:18;;;;;;;10.70;7.60;;;19.20;99.90;;;;;;4994937;28;20433;-80
2021/07/22 01:41:47;;;;;;;11.87;7.50;;;19.10;99.90;;;;;;5012479;28;20498;-80
2021/07/22 01:44:16;;;;;;;15.40;8.93;;;18.90;99.90;;;;;;5012152;28;20456;-80
2021/07/22 01:46:45;;;;;;;10.60;8.50;;;19.00;99.90;;;;;;4984975;28;20417;-79
2021/07/22 01:49:14;;;;;;;14.23;6.67;;;18.90;99.90;;;;;;4981974;28;20514;-80
2021/07/22 01:51:42;;;;;;;9.43;7.30;;;18.70;99.90;;;;;;4985454;28;20422;-80
2021/07/22 01:54:12;;;;;;;10.20;8.10;;;18.60;99.90;;;;;;5001097;28;20823;-80
2021/07/22 01:56:40;;;;;;;12.33;9.13;;;18.60;99.90;;;;;;5001597;28;20421;-80
2021/07/22 01:59:08;;;;;;;13.50;8.23;;;18.50;99.90;;;;;;4983039;28;20821;-81
2021/07/22 02:01:38;;;;;;;9.17;8.07;;;18.40;99.90;;;;;;4992484;28;20409;-79
2021/07/22 02:04:22;;;;;;;9.03;7.30;;;18.40;99.90;;;;;;4992473;28;20842;-80
2021/07/22 02:06:50;;;;;;;11.97;7.67;;;18.40;99.90;;;;;;4977084;28;20423;-80
2021/07/22 02:09:20;;;;;;;14.07;7.90;;;18.40;99.90;;;;;;4992121;28;20431;-80
2021/07/22 02:11:50;;;;;;;15.77;8.67;;;18.40;99.90;;;;;;4991705;28;20533;-80
2021/07/22 02:14:18;;;;;;;8.83;6.97;;;18.60;99.90;;;;;;4977608;28;20414;-80
2021/07/22 02:16:48;;;;;;;10.87;8.03;;;18.70;99.90;;;;;;4992308;28;20421;-80
2021/07/22 02:19:18;;;;;;;11.97;7.73;;;18.60;99.90;;;;;;4976619;28;20467;-80
2021/07/22 02:21:49;;;;;;;10.63;7.90;;;18.50;99.90;;;;;;4992086;28;20804;-80
2021/07/22 02:24:20;;;;;;;12.57;8.07;;;18.60;99.90;;;;;;4992007;28;20530;-80
2021/07/22 02:27:17;;;;;;;12.13;7.83;;;18.50;99.90;;;;;;4972644;28;20438;-80
2021/07/22 02:29:49;;;;;;;12.23;7.90;;;18.60;99.90;;;;;;4992157;28;20439;-80
2021/07/22 02:32:17;;;;;;;11.23;8.10;;;18.60;99.90;;;;;;4992055;28;20452;-80
2021/07/22 02:34:47;;;;;;;8.57;7.40;;;18.60;99.90;;;;;;4992141;28;20418;-80
2021/07/22 02:37:37;;;;;;;13.50;10.83;;;18.70;99.90;;;;;;4977517;28;20505;-80
2021/07/22 02:40:12;;;;;;;9.37;6.73;;;18.60;99.90;;;;;;4991128;28;20559;-79
2021/07/22 02:42:41;;;;;;;10.47;8.23;;;18.60;99.90;;;;;;4991320;28;20532;-80
2021/07/22 02:45:14;;;;;;;11.90;7.87;;;18.50;99.90;;;;;;4974988;28;20451;-79
2021/07/22 02:47:44;;;;;;;10.07;7.30;;;18.60;99.90;;;;;;4992424;28;20476;-79
2021/07/22 02:50:13;;;;;;;9.20;6.70;;;18.60;99.90;;;;;;4974949;28;20447;-80
2021/07/22 02:52:45;;;;;;;9.23;6.63;;;18.70;99.90;;;;;;4991536;28;20462;-80
2021/07/22 02:55:15;;;;;;;8.37;6.20;;;18.80;99.90;;;;;;4977650;28;20427;-80
2021/07/22 02:57:44;;;;;;;12.67;7.70;;;18.80;99.90;;;;;;4976322;28;20492;-81
2021/07/22 03:00:14;;;;;;;12.40;7.10;;;18.80;99.90;;;;;;4975535;28;20967;-80
2021/07/22 03:02:44;;;;;;;10.23;6.73;;;18.80;99.90;;;;;;4976508;28;20455;-81
2021/07/22 03:05:13;;;;;;;10.37;7.97;;;18.70;99.90;;;;;;4975220;28;20447;-81
2021/07/22 03:07:45;;;;;;;9.43;6.90;;;18.60;99.90;;;;;;4992999;28;20455;-79
2021/07/22 03:10:16;;;;;;;9.37;7.50;;;18.40;99.90;;;;;;4995812;28;20450;-80
2021/07/22 03:12:45;;;;;;;11.30;7.07;;;18.20;99.90;;;;;;4998820;28;20437;-79
2021/07/22 03:15:13;;;;;;;10.63;7.33;;;18.10;99.90;;;;;;4999075;28;20500;-80
2021/07/22 03:17:48;;;;;;;11.00;7.60;;;18.00;99.90;;;;;;4977100;28;20441;-80
2021/07/22 03:20:18;;;;;;;12.07;7.70;;;18.00;99.90;;;;;;4975857;28;20466;-80
2021/07/22 03:22:50;;;;;;;10.47;7.63;;;18.00;99.90;;;;;;4974887;28;20457;-79
2021/07/22 03:25:26;;;;;;;10.17;7.60;;;18.00;99.90;;;;;;4975527;28;20408;-79
2021/07/22 03:28:24;;;;;;;9.50;6.60;;;18.20;99.90;;;;;;4968136;28;20420;-80
2021/07/22 03:30:57;;;;;;;9.40;7.83;;;18.10;99.90;;;;;;5000781;28;20450;-79
2021/07/22 03:33:57;;;;;;;12.57;7.83;;;18.40;99.90;;;;;;4975939;28;20484;-79
2021/07/22 03:36:30;;;;;;;11.20;8.17;;;18.60;99.90;;;;;;5006076;28;20496;-79
2021/07/22 03:39:05;;;;;;;11.90;8.40;;;18.70;99.90;;;;;;4998676;28;20979;-79
2021/07/22 03:41:38;;;;;;;11.60;8.03;;;18.70;99.90;;;;;;4985945;28;20429;-80
2021/07/22 03:44:26;;;;;;;11.50;8.30;;;18.80;99.90;;;;;;4985536;28;20860;-79
2021/07/22 03:46:56;;;;;;;11.50;7.57;;;18.80;99.90;;;;;;4979563;28;20449;-81
2021/07/22 03:49:26;;;;;;;9.47;7.80;;;18.80;99.90;;;;;;5007748;28;20405;-86
2021/07/22 03:51:58;;;;;;;9.50;7.97;;;18.80;99.90;;;;;;5013320;28;20474;-82
2021/07/22 03:54:37;;;;;;;9.93;7.80;;;18.90;99.90;;;;;;5013777;28;20439;-81
2021/07/22 03:57:07;;;;;;;9.83;7.57;;;18.90;99.90;;;;;;4986515;28;20975;-81
2021/07/22 03:59:35;;;;;;;10.00;8.10;;;19.00;99.90;;;;;;4999872;28;20465;-80
2021/07/22 04:02:04;;;;;;;9.40;7.40;;;19.10;99.90;;;;;;5010666;28;20458;-80
2021/07/22 04:04:41;;;;;;;11.00;9.27;;;19.00;99.90;;;;;;5007915;28;20899;-80
2021/07/22 04:07:10;;;;;;;10.27;8.10;;;18.70;99.90;;;;;;4992477;28;20401;-80
2021/07/22 04:09:50;;;;;;;13.20;8.30;;;18.50;99.90;;;;;;4986283;28;20469;-79
2021/07/22 04:12:31;;;;;;;11.17;8.90;;;18.30;99.90;;;;;;4998747;28;20433;-82
2021/07/22 04:15:18;;;;;;;11.17;9.37;;;18.20;99.90;;;;;;5002474;28;20410;-82
2021/07/22 04:17:49;;;;;;;10.40;8.23;;;18.10;99.90;;;;;;5002417;28;20410;-81
2021/07/22 04:20:28;;;;;;;14.00;9.87;;;18.10;99.90;;;;;;5017813;28;20494;-82
2021/07/22 04:23:21;;;;;;;12.27;9.20;;;18.10;99.90;;;;;;5017871;28;20482;-83
2021/07/22 04:25:50;;;;;;;11.33;8.70;;;18.20;99.90;;;;;;5002208;28;20419;-83
2021/07/22 04:28:38;;;;;;;11.57;8.47;;;18.20;99.90;;;;;;5002096;28;20580;-83
2021/07/22 04:31:08;;;;;;;9.87;7.87;;;18.40;99.90;;;;;;5002386;28;20457;-83
2021/07/22 04:33:54;;;;;;;12.77;8.60;;;18.30;99.90;;;;;;5002039;28;20410;-82
2021/07/22 04:36:40;;;;;;;10.73;8.50;;;18.40;99.90;;;;;;5001290;28;20397;-83
2021/07/22 04:39:27;;;;;;;11.80;8.87;;;18.60;99.90;;;;;;5000797;28;20420;-81
2021/07/22 04:42:18;;;;;;;15.90;9.33;;;18.70;99.90;;;;;;4982541;28;20465;-81
2021/07/22 04:45:14;;;;;;;10.90;7.70;;;18.80;99.90;;;;;;4995599;28;20425;-82
2021/07/22 04:48:02;;;;;;;10.73;7.87;;;18.80;99.90;;;;;;4994695;28;20501;-80
2021/07/22 04:50:49;;;;;;;10.90;7.70;;;18.90;99.90;;;;;;4994463;28;20409;-79
2021/07/22 04:53:43;;;;;;;14.53;10.77;;;18.90;99.90;;;;;;4995111;28;20591;-81
2021/07/22 04:56:12;;;;;;;13.87;9.33;;;19.00;99.90;;;;;;4994464;28;20417;-80
2021/07/22 04:58:40;;;;;;;15.43;10.60;;;18.80;99.90;;;;;;4994494;28;20446;-81
2021/07/22 05:01:19;;;;;;;11.63;8.63;;;18.90;99.90;;;;;;4979629;28;20481;-82
2021/07/22 05:03:49;;;;;;;14.90;11.37;;;19.00;99.90;;;;;;5039975;23;20566;-84
2021/07/22 05:06:18;;;;;;;18.40;12.40;;;19.10;99.90;;;;;;4999445;28;20446;-85
2021/07/22 05:09:09;;;;;;;17.97;13.47;;;19.20;99.90;;;;;;5002097;28;20417;-84
2021/07/22 05:11:44;;;;;;;14.37;9.90;;;19.40;99.90;;;;;;5017582;28;20466;-84
2021/07/22 05:14:24;;;;;;;18.53;10.33;;;19.80;99.90;;;;;;5018242;28;20487;-84
2021/07/22 05:17:01;;;;;;;15.70;9.97;;;20.50;99.90;;;;;;5019025;28;20420;-85
2021/07/22 05:19:48;;;;;;;14.30;10.23;;;20.50;99.90;;;;;;5001633;28;20407;-85
2021/07/22 05:22:35;;;;;;;14.37;10.00;;;20.10;99.90;;;;;;5003065;28;21127;-86
2021/07/22 05:25:22;;;;;;;11.73;8.60;;;19.80;99.90;;;;;;5002062;28;20557;-85
2021/07/22 05:28:04;;;;;;;11.20;8.33;;;19.80;99.90;;;;;;5017242;28;20517;-86
2021/07/22 05:30:37;;;;;;;10.70;8.10;;;19.80;99.90;;;;;;5003705;28;20462;-84
2021/07/22 05:33:23;;;;;;;10.53;7.53;;;20.40;99.90;;;;;;5016162;28;20454;-84
2021/07/22 05:36:19;;;;;;;9.97;7.97;;;21.40;99.90;;;;;;5005419;28;20444;-84
2021/07/22 05:39:16;;;;;;;10.97;8.50;;;21.90;99.90;;;;;;5008248;28;20439;-84
2021/07/22 05:41:44;;;;;;;9.67;7.27;;;22.00;99.90;;;;;;5009729;28;20490;-84
2021/07/22 05:44:12;;;;;;;8.83;7.90;;;21.70;99.90;;;;;;5017922;28;20434;-83
2021/07/22 05:46:40;;;;;;;9.93;7.80;;;21.30;99.90;;;;;;5017962;28;20434;-84
2021/07/22 05:49:10;;;;;;;10.00;7.10;;;21.00;99.90;;;;;;5010963;28;20454;-85
2021/07/22 05:51:39;;;;;;;8.97;7.37;;;21.10;99.90;;;;;;5004132;28;20422;-84
2021/07/22 05:54:09;;;;;;;8.23;6.43;;;21.30;99.90;;;;;;5014796;28;20457;-83
2021/07/22 05:56:38;;;;;;;9.27;7.10;;;21.70;99.90;;;;;;5011931;28;20426;-82
2021/07/22 05:59:07;;;;;;;10.57;7.70;;;21.90;99.90;;;;;;4999012;28;20417;-82
2021/07/22 06:01:35;;;;;;;11.23;8.30;;;22.10;99.90;;;;;;4983388;28;20458;-82
2021/07/22 06:04:03;;;;;;;10.47;8.20;;;22.00;99.90;;;;;;4978610;28;20433;-82
2021/07/22 06:06:34;;;;;;;10.63;8.20;;;22.30;99.90;;;;;;4981402;28;20420;-84
2021/07/22 06:09:02;;;;;;;8.90;6.80;;;22.40;99.90;;;;;;5005140;28;20435;-83
2021/07/22 06:11:31;;;;;;;8.30;7.40;;;22.60;99.90;;;;;;5025830;28;20469;-83
2021/07/22 06:13:59;;;;;;;7.23;5.73;;;22.60;99.90;;;;;;5013176;28;20563;-83
2021/07/22 06:16:27;;;;;;;10.73;7.50;;;22.40;99.90;;;;;;5012884;28;20434;-83
2021/07/22 06:18:55;;;;;;;9.03;7.90;;;22.40;99.90;;;;;;5007671;28;20537;-81
2021/07/22 06:21:24;;;;;;;8.63;5.97;;;22.50;99.90;;;;;;4996849;28;20918;-82
2021/07/22 06:23:53;;;;;;;8.53;7.10;;;22.70;99.90;;;;;;5003168;28;20470;-82
2021/07/22 06:26:21;;;;;;;9.43;6.80;;;22.70;99.90;;;;;;5004044;28;20493;-82
2021/07/22 06:28:50;;;;;;;12.10;7.60;;;22.80;99.90;;;;;;5001943;28;20436;-83
2021/07/22 06:31:18;;;;;;;10.90;9.33;;;22.80;99.90;;;;;;4986751;28;20757;-83
2021/07/22 06:33:46;;;;;;;9.13;6.20;;;23.00;99.90;;;;;;4978407;28;20454;-83
2021/07/22 06:36:14;;;;;;;9.23;6.90;;;22.90;99.90;;;;;;4975246;28;20791;-83
2021/07/22 06:38:42;;;;;;;11.83;6.57;;;22.70;99.90;;;;;;4980704;28;20401;-84
2021/07/22 06:41:12;;;;;;;10.80;5.87;;;22.90;99.90;;;;;;4985697;28;20462;-83
2021/07/22 06:43:40;;;;;;;10.70;7.13;;;22.90;99.90;;;;;;4985583;28;20445;-84
2021/07/22 06:46:13;;;;;;;7.43;6.70;;;23.10;99.90;;;;;;4984290;28;20804;-84
2021/07/22 06:48:42;;;;;;;12.87;8.33;;;23.20;99.90;;;;;;4982283;28;20413;-83
2021/07/22 06:51:10;;;;;;;6.63;5.87;;;23.40;99.90;;;;;;4997823;28;20506;-84
2021/07/22 06:53:38;;;;;;;8.03;6.70;;;23.30;99.90;;;;;;4983550;28;20477;-85
2021/07/22 06:56:07;;;;;;;9.73;6.20;;;23.00;99.90;;;;;;4981399;28;20483;-84
2021/07/22 06:58:37;;;;;;;8.90;6.93;;;22.80;99.90;;;;;;4981984;28;20599;-84
2021/07/22 07:01:06;;;;;;;11.80;6.90;;;23.00;99.90;;;;;;4982254;28;20436;-84
2021/07/22 07:03:34;;;;;;;6.33;5.63;;;23.10;99.90;;;;;;4981897;28;20465;-84
2021/07/22 07:06:03;;;;;;;9.50;6.80;;;23.30;99.90;;;;;;4997051;28;20455;-84
2021/07/22 07:08:31;;;;;;;9.27;7.50;;;22.90;99.90;;;;;;4981770;28;20476;-84
2021/07/22 07:11:00;;;;;;;9.30;6.97;;;22.80;99.90;;;;;;4982434;28;20411;-84
2021/07/22 07:13:28;;;;;;;9.73;7.07;;;22.60;99.90;;;;;;4980142;28;20458;-85
2021/07/22 07:15:58;;;;;;;10.03;5.30;;;22.60;99.90;;;;;;4987000;28;20890;-83
2021/07/22 07:18:26;;;;;;;8.37;5.60;;;22.60;99.90;;;;;;4992325;28;20406;-82
2021/07/22 07:20:54;;;;;;;8.10;6.70;;;22.90;99.90;;;;;;4994520;28;20438;-83
2021/07/22 07:23:22;;;;;;;7.63;6.00;;;23.10;99.90;;;;;;4998080;28;20478;-85
2021/07/22 07:25:50;;;;;;;10.20;6.70;;;23.10;99.90;;;;;;4988443;28;20933;-84
2021/07/22 07:28:18;;;;;;;7.67;5.33;;;23.30;99.90;;;;;;4987268;28;20406;-84
2021/07/22 07:30:46;;;;;;;7.53;6.07;;;23.40;99.90;;;;;;4988180;28;20445;-85
2021/07/22 07:33:16;;;;;;;12.53;6.63;;;23.60;99.90;;;;;;5001487;28;20424;-84
2021/07/22 07:35:44;;;;;;;10.37;6.07;;;23.90;99.90;;;;;;4995754;28;20445;-84
2021/07/22 07:38:12;;;;;;;9.57;7.43;;;24.00;99.90;;;;;;5001603;28;20466;-84
2021/07/22 07:40:40;;;;;;;11.23;6.70;;;24.00;99.90;;;;;;4991281;28;20401;-85
2021/07/22 07:43:08;;;;;;;10.83;5.97;;;24.00;99.90;;;;;;4978314;28;20478;-84
2021/07/22 07:45:36;;;;;;;12.33;6.30;;;23.80;99.90;;;;;;4980473;28;20904;-84
2021/07/22 07:48:05;;;;;;;8.00;6.47;;;23.60;99.90;;;;;;4996349;28;20433;-84
2021/07/22 07:50:34;;;;;;;14.97;8.27;;;23.50;99.90;;;;;;4997925;28;20767;-84
2021/07/22 07:53:11;;;;;;;8.43;6.30;;;23.50;99.90;;;;;;4999128;28;20461;-84
2021/07/22 07:55:40;;;;;;;9.20;6.20;;;23.50;99.90;;;;;;4996658;28;20807;-84
2021/07/22 07:58:08;;;;;;;8.10;6.93;;;23.50;99.90;;;;;;5006181;28;20437;-84
2021/07/22 08:00:37;;;;;;;7.73;5.73;;;23.10;99.90;;;;;;5000857;28;20409;-84
2021/07/22 08:03:05;;;;;;;8.57;6.43;;;22.80;99.90;;;;;;5001444;28;20541;-85
2021/07/22 08:05:40;;;;;;;11.70;6.40;;;22.40;99.90;;;;;;5014209;28;20970;-83
2021/07/22 08:08:08;;;;;;;10.80;6.97;;;22.50;99.90;;;;;;5005517;28;20442;-83
2021/07/22 08:10:36;;;;;;;6.40;5.40;;;22.30;99.90;;;;;;4981041;28;20427;-81
2021/07/22 08:13:06;;;;;;;10.13;7.60;;;22.40;99.90;;;;;;4998167;28;20964;-81
2021/07/22 08:15:35;;;;;;;9.43;7.10;;;22.60;99.90;;;;;;5021343;28;20464;-81
2021/07/22 08:18:03;;;;;;;8.37;6.60;;;22.40;99.90;;;;;;4992028;28;20508;-82
2021/07/22 08:20:31;;;;;;;10.30;7.03;;;22.50;99.90;;;;;;4978775;28;20482;-86
2021/07/22 08:23:01;;;;;;;10.90;7.77;;;22.50;99.90;;;;;;4984146;28;20975;-84
2021/07/22 08:25:29;;;;;;;7.20;5.90;;;22.50;99.90;;;;;;4986354;28;20461;-84
2021/07/22 08:27:57;;;;;;;8.63;6.20;;;22.80;99.90;;;;;;4979793;28;20421;-84
2021/07/22 08:30:26;;;;;;;10.17;7.10;;;23.20;99.90;;;;;;4979810;28;20450;-85
2021/07/22 08:32:55;;;;;;;12.70;8.43;;;23.30;99.90;;;;;;5003141;28;20845;-85
2021/07/22 08:35:23;;;;;;;11.90;6.57;;;23.10;99.90;;;;;;4986152;28;20433;-85
2021/07/22 08:37:51;;;;;;;11.87;8.60;;;23.30;99.90;;;;;;4985395;28;20446;-85
2021/07/22 08:40:20;;;;;;;12.00;7.50;;;23.80;99.90;;;;;;5004756;28;20808;-86
2021/07/22 08:42:49;;;;;;;8.30;6.07;;;24.10;99.90;;;;;;5008022;28;20505;-85
2021/07/22 08:45:18;;;;;;;8.10;6.50;;;24.30;99.90;;;;;;4995888;28;20849;-88
2021/07/22 08:47:47;;;;;;;11.33;7.73;;;24.50;99.90;;;;;;5004310;28;20438;-86
2021/07/22 08:50:15;;;;;;;9.80;6.80;;;24.90;99.90;;;;;;4980125;28;20426;-86
2021/07/22 08:52:50;;;;;;;9.10;7.00;;;25.00;99.90;;;;;;4989848;28;20977;-87
2021/07/22 08:55:27;;;;;;;8.17;6.43;;;25.30;99.90;;;;;;5000161;28;20440;-87
2021/07/22 08:57:59;;;;;;;8.40;6.17;;;25.60;99.90;;;;;;5013622;28;20434;-87
2021/07/22 09:00:32;;;;;;;11.00;7.03;;;25.40;99.90;;;;;;4999882;28;20410;-87
2021/07/22 09:03:01;;;;;;;7.70;6.90;;;25.40;99.90;;;;;;4999114;28;20488;-85
2021/07/22 09:05:31;;;;;;;9.87;6.73;;;25.30;99.90;;;;;;4998441;28;20405;-85
2021/07/22 09:08:00;;;;;;;7.90;7.10;;;25.30;99.90;;;;;;4997925;28;20461;-86
2021/07/22 09:10:31;;;;;;;8.83;6.77;;;25.10;99.90;;;;;;4999432;28;20472;-86
2021/07/22 09:12:59;;;;;;;10.40;8.83;;;25.00;99.90;;;;;;4981104;28;20473;-85
2021/07/22 09:15:28;;;;;;;11.87;8.50;;;24.70;99.90;;;;;;4987855;28;20393;-85
2021/07/22 09:18:23;;;;;;;7.87;6.50;;;24.30;99.90;;;;;;4983139;28;20430;-85
2021/07/22 09:20:55;;;;;;;9.63;7.60;;;24.10;99.90;;;;;;4998218;28;20393;-86
2021/07/22 09:23:25;;;;;;;8.40;7.47;;;24.10;99.90;;;;;;5013897;28;20451;-87
2021/07/22 09:25:56;;;;;;;9.20;6.83;;;24.30;99.90;;;;;;4998566;28;20453;-86
2021/07/22 09:28:27;;;;;;;9.47;6.90;;;24.10;99.90;;;;;;4999646;28;20418;-85
2021/07/22 09:31:01;;;;;;;10.87;6.27;;;24.10;99.90;;;;;;4999859;28;20434;-85
2021/07/22 09:33:36;;;;;;;10.37;6.47;;;23.90;99.90;;;;;;5002587;28;20453;-87
2021/07/22 09:36:06;;;;;;;10.13;6.40;;;23.60;99.90;;;;;;5003152;28;20437;-85
2021/07/22 09:38:34;;;;;;;10.10;6.47;;;23.70;99.90;;;;;;5005701;28;20461;-85
2021/07/22 09:41:04;;;;;;;9.33;7.07;;;23.80;99.90;;;;;;5003933;28;20484;-86
2021/07/22 09:43:37;;;;;;;7.10;5.40;;;24.10;99.90;;;;;;5002813;28;20593;-85
2021/07/22 09:46:06;;;;;;;9.63;6.70;;;24.20;99.90;;;;;;4994725;28;20409;-87
2021/07/22 09:48:34;;;;;;;8.03;6.67;;;24.30;99.90;;;;;;5007454;28;20928;-86
2021/07/22 09:51:03;;;;;;;7.03;6.10;;;24.50;99.90;;;;;;5007877;28;20438;-85
2021/07/22 09:53:32;;;;;;;11.13;6.67;;;24.40;99.90;;;;;;5001077;28;20436;-84
2021/07/22 09:56:00;;;;;;;9.03;6.43;;;24.50;99.90;;;;;;4985487;28;20677;-85
2021/07/22 09:58:30;;;;;;;7.73;6.10;;;24.40;99.90;;;;;;5005238;28;20973;-87
2021/07/22 10:01:01;;;;;;;9.23;7.40;;;24.30;99.90;;;;;;4998809;28;20786;-86
2021/07/22 10:03:31;;;;;;;7.53;6.70;;;24.10;99.90;;;;;;5000254;28;20456;-85
2021/07/22 10:06:03;;;;;;;8.37;6.97;;;23.60;99.90;;;;;;4997311;28;20422;-85
2021/07/22 10:08:33;;;;;;;8.20;6.20;;;23.20;99.90;;;;;;4999740;28;20414;-84
2021/07/22 10:11:05;;;;;;;10.00;7.00;;;22.70;99.90;;;;;;4997971;28;20511;-86
2021/07/22 10:13:39;;;;;;;7.50;6.80;;;22.50;99.90;;;;;;4997664;28;20446;-85
2021/07/22 10:16:11;;;;;;;9.40;7.10;;;22.40;99.90;;;;;;4985672;28;20437;-85
2021/07/22 10:18:46;;;;;;;7.60;6.50;;;22.30;99.90;;;;;;4981359;28;20411;-85
2021/07/22 10:21:14;;;;;;;8.93;8.00;;;22.10;99.90;;;;;;4979332;28;20410;-85
2021/07/22 10:23:43;;;;;;;10.37;8.00;;;22.10;99.90;;;;;;4981543;28;20462;-85
2021/07/22 10:26:13;;;;;;;12.40;7.63;;;22.20;99.90;;;;;;4995093;28;20906;-85
2021/07/22 10:28:43;;;;;;;10.10;8.40;;;22.20;99.90;;;;;;4983182;28;20445;-85
2021/07/22 10:31:12;;;;;;;10.40;7.30;;;22.30;99.90;;;;;;4979747;28;20514;-85
2021/07/22 10:33:42;;;;;;;10.10;6.23;;;22.40;99.90;;;;;;4983039;28;21013;-85
2021/07/22 10:36:11;;;;;;;13.80;6.50;;;22.60;99.90;;;;;;4994505;28;20473;-86
2021/07/22 10:38:43;;;;;;;9.40;6.90;;;22.90;99.90;;;;;;5008410;28;20704;-85
2021/07/22 10:41:34;;;;;;;8.97;6.67;;;23.10;99.90;;;;;;5024708;28;20399;-85
2021/07/22 10:44:06;;;;;;;7.80;6.20;;;23.30;99.90;;;;;;4999381;28;20650;-86
2021/07/22 10:46:55;;;;;;;6.90;5.77;;;23.30;99.90;;;;;;4978073;28;20860;-87
2021/07/22 10:49:39;;;;;;;11.47;7.33;;;23.60;99.90;;;;;;4978980;28;20437;-86
2021/07/22 10:52:09;;;;;;;9.30;6.77;;;23.80;99.90;;;;;;4979088;28;20415;-86
2021/07/22 10:54:48;;;;;;;9.67;6.77;;;24.20;99.90;;;;;;4981467;28;20465;-86
2021/07/22 10:57:35;;;;;;;10.80;7.77;;;24.70;99.90;;;;;;4982628;28;20401;-87
2021/07/22 11:00:08;;;;;;;8.07;6.60;;;25.10;99.90;;;;;;4997309;28;20426;-86
2021/07/22 11:02:41;;;;;;;9.77;7.27;;;25.30;99.90;;;;;;5008555;22;20480;-67
2021/07/22 11:05:10;;;;;;;7.60;6.80;;;25.20;99.90;;;;;;5037595;22;20479;-70
2021/07/22 11:07:39;;;;;;;9.33;7.60;;;25.40;99.90;;;;;;5025024;28;20432;-71
2021/07/22 11:10:50;;;;;;;7.93;6.67;;;25.30;99.90;;;;;;5021689;28;20548;-70
2021/07/22 11:13:51;;;;;;;8.57;7.40;;;25.10;99.90;;;;;;5010050;28;20419;-70
2021/07/22 11:16:22;;;;;;;13.23;8.27;;;25.40;99.90;;;;;;5008609;28;20456;-70
2021/07/22 11:19:02;;;;;;;8.87;5.80;;;25.40;99.90;;;;;;5008652;28;20483;-71
2021/07/22 11:21:32;;;;;;;7.50;6.67;;;25.30;99.90;;;;;;5010235;28;20425;-71
2021/07/22 11:24:06;;;;;;;14.73;6.70;;;25.00;99.90;;;;;;5009899;28;20439;-70
2021/07/22 11:26:36;;;;;;;6.70;5.30;;;25.00;99.90;;;;;;5007380;28;20435;-70
2021/07/22 11:29:15;;;;;;;9.87;6.70;;;25.20;99.90;;;;;;4990335;28;20432;-70
2021/07/22 11:31:46;;;;;;;7.90;6.70;;;25.10;99.90;;;;;;4994943;28;20453;-70
2021/07/22 11:34:14;;;;;;;8.23;6.97;;;25.00;99.90;;;;;;5009397;28;20427;-71
2021/07/22 11:36:43;;;;;;;8.83;6.67;;;24.80;99.90;;;;;;5003857;28;20433;-70
2021/07/22 11:39:11;;;;;;;8.23;6.40;;;24.60;99.90;;;;;;5008521;28;20436;-71
2021/07/22 11:41:40;;;;;;;12.77;6.53;;;24.60;99.90;;;;;;5009589;28;20452;-71
2021/07/22 11:44:10;;;;;;;7.83;5.70;;;24.50;99.90;;;;;;5009685;28;20481;-71
2021/07/22 11:46:41;;;;;;;10.30;7.80;;;24.30;99.90;;;;;;5007275;28;20437;-70
2021/07/22 11:49:13;;;;;;;9.73;6.57;;;24.50;99.90;;;;;;5008637;28;20463;-70
2021/07/22 11:51:42;;;;;;;11.67;6.40;;;24.80;99.90;;;;;;5009272;28;21097;-71
2021/07/22 11:54:12;;;;;;;8.30;6.50;;;24.60;99.90;;;;;;5008592;28;20915;-69
2021/07/22 11:56:42;;;;;;;7.63;6.77;;;24.50;99.90;;;;;;5008205;28;20443;-71
2021/07/22 11:59:12;;;;;;;7.97;7.13;;;24.80;99.90;;;;;;5009652;28;20482;-71
2021/07/22 12:01:51;;;;;;;11.60;7.60;;;24.80;99.90;;;;;;5010005;28;20420;-71
2021/07/22 12:04:26;;;;;;;6.93;6.27;;;24.90;99.90;;;;;;5008384;28;20464;-70
2021/07/22 12:06:55;;;;;;;11.90;8.23;;;24.70;99.90;;;;;;5007545;28;20438;-70
2021/07/22 12:09:23;;;;;;;8.80;7.23;;;24.50;99.90;;;;;;5009234;28;20437;-71
2021/07/22 12:11:53;;;;;;;9.67;7.00;;;24.10;99.90;;;;;;5008929;28;20449;-70
2021/07/22 12:14:30;;;;;;;9.50;7.17;;;24.10;99.90;;;;;;5008556;28;20536;-72
2021/07/22 12:17:01;;;;;;;9.60;7.10;;;23.80;99.90;;;;;;5006585;28;20457;-70
2021/07/22 12:19:33;;;;;;;11.53;7.80;;;23.60;99.90;;;;;;5007946;28;20441;-72
2021/07/22 12:22:24;;;;;;;9.23;8.23;;;23.40;99.90;;;;;;5008883;28;20421;-72
2021/07/22 12:24:53;;;;;;;8.93;7.40;;;22.90;99.90;;;;;;5005872;28;20469;-72
2021/07/22 12:27:33;;;;;;;10.23;7.10;;;22.80;99.90;;;;;;5007418;28;20476;-71
2021/07/22 12:30:04;;;;;;;8.30;6.20;;;22.40;99.90;;;;;;5009824;28;20510;-71
2021/07/22 12:32:32;;;;;;;9.53;7.10;;;22.20;99.90;;;;;;4998812;28;20422;-70
2021/07/22 12:35:02;;;;;;;9.57;7.30;;;22.00;99.90;;;;;;5010680;28;20934;-70
2021/07/22 12:37:56;;;;;;;8.20;7.20;;;21.90;99.90;;;;;;5012083;28;20806;-70
2021/07/22 12:40:35;;;;;;;9.73;7.00;;;21.80;99.90;;;;;;4987459;28;20449;-71
2021/07/22 12:43:05;;;;;;;8.70;7.70;;;21.80;99.90;;;;;;4993233;28;20404;-69
2021/07/22 12:45:34;;;;;;;8.17;6.60;;;21.90;99.90;;;;;;5001588;28;20467;-71
2021/07/22 12:48:02;;;;;;;10.30;7.10;;;22.30;99.90;;;;;;5011693;28;20400;-71
2021/07/22 12:50:33;;;;;;;9.90;8.03;;;22.50;99.90;;;;;;5012828;28;20454;-71
2021/07/22 12:53:03;;;;;;;9.70;6.70;;;22.90;99.90;;;;;;5012822;28;20424;-71
2021/07/22 12:55:33;;;;;;;8.90;6.90;;;23.00;99.90;;;;;;5010870;28;20771;-71
2021/07/22 12:58:03;;;;;;;12.60;7.80;;;23.40;99.90;;;;;;5012282;28;20433;-71
2021/07/22 13:00:40;;;;;;;7.73;6.40;;;23.70;99.90;;;;;;5012880;28;20460;-72
2021/07/22 13:03:09;;;;;;;11.07;7.93;;;23.60;99.90;;;;;;5012878;28;20449;-70
2021/07/22 13:05:39;;;;;;;11.50;8.00;;;23.50;99.90;;;;;;5012039;28;20507;-70
2021/07/22 13:08:08;;;;;;;8.60;7.27;;;23.70;99.90;;;;;;5012203;28;20821;-71